sensor_id;sensor_type;location;lat;lon;timestamp;P1;durP1;ratioP1;P2;durP2;ratioP2
9821;SDS011;4950;46.042;14.472;2022-10-31T00:00:45;11.90;;;7.90;;
9821;SDS011;4950;46.042;14.472;2022-10-31T00:03:12;11.00;;;7.77;;
9821;SDS011;4950;46.042;14.472;2022-10-31T00:05:40;13.90;;;6.70;;
9821;SDS011;4950;46.042;14.472;2022-10-31T00:08:07;9.17;;;6.90;;
9821;SDS011;4950;46.042;14.472;2022-10-31T00:10:36;10.20;;;6.90;;
9821;SDS011;4950;46.042;14.472;2022-10-31T00:13:03;7.93;;;6.30;;
9821;SDS011;4950;46.042;14.472;2022-10-31T00:15:31;8.57;;;6.93;;
9821;SDS011;4950;46.042;14.472;2022-10-31T00:18:00;12.17;;;7.63;;
9821;SDS011;4950;46.042;14.472;2022-10-31T00:20:26;13.73;;;8.17;;
9821;SDS011;4950;46.042;14.472;2022-10-31T00:22:53;10.17;;;7.47;;
9821;SDS011;4950;46.042;14.472;2022-10-31T00:25:23;11.73;;;8.37;;
9821;SDS011;4950;46.042;14.472;2022-10-31T00:27:49;12.47;;;7.93;;
9821;SDS011;4950;46.042;14.472;2022-10-31T00:30:16;12.53;;;8.53;;
9821;SDS011;4950;46.042;14.472;2022-10-31T00:32:43;11.37;;;7.87;;
9821;SDS011;4950;46.042;14.472;2022-10-31T00:35:11;11.70;;;8.17;;
9821;SDS011;4950;46.042;14.472;2022-10-31T00:37:37;17.93;;;8.83;;
9821;SDS011;4950;46.042;14.472;2022-10-31T00:40:04;13.60;;;9.23;;
9821;SDS011;4950;46.042;14.472;2022-10-31T00:42:32;13.03;;;7.93;;
9821;SDS011;4950;46.042;14.472;2022-10-31T00:44:58;11.20;;;7.10;;
9821;SDS011;4950;46.042;14.472;2022-10-31T00:47:25;10.20;;;6.93;;
9821;SDS011;4950;46.042;14.472;2022-10-31T00:49:52;17.33;;;9.43;;
9821;SDS011;4950;46.042;14.472;2022-10-31T00:52:20;25.00;;;9.97;;
9821;SDS011;4950;46.042;14.472;2022-10-31T00:54:46;21.13;;;10.57;;
9821;SDS011;4950;46.042;14.472;2022-10-31T00:57:14;22.70;;;12.53;;
9821;SDS011;4950;46.042;14.472;2022-10-31T00:59:40;21.87;;;11.00;;
9821;SDS011;4950;46.042;14.472;2022-10-31T01:02:07;23.27;;;12.33;;
9821;SDS011;4950;46.042;14.472;2022-10-31T01:04:33;21.50;;;11.30;;
9821;SDS011;4950;46.042;14.472;2022-10-31T01:07:00;24.70;;;11.87;;
9821;SDS011;4950;46.042;14.472;2022-10-31T01:09:28;23.10;;;11.53;;
9821;SDS011;4950;46.042;14.472;2022-10-31T01:11:55;22.07;;;11.43;;
9821;SDS011;4950;46.042;14.472;2022-10-31T01:14:21;23.77;;;12.07;;
9821;SDS011;4950;46.042;14.472;2022-10-31T01:16:48;25.40;;;11.77;;
9821;SDS011;4950;46.042;14.472;2022-10-31T01:19:14;22.53;;;11.27;;
9821;SDS011;4950;46.042;14.472;2022-10-31T01:21:41;23.53;;;11.33;;
9821;SDS011;4950;46.042;14.472;2022-10-31T01:24:08;19.90;;;10.70;;
9821;SDS011;4950;46.042;14.472;2022-10-31T01:26:36;19.47;;;10.70;;
9821;SDS011;4950;46.042;14.472;2022-10-31T01:29:03;23.57;;;10.67;;
9821;SDS011;4950;46.042;14.472;2022-10-31T01:31:32;22.73;;;11.07;;
9821;SDS011;4950;46.042;14.472;2022-10-31T01:34:00;20.50;;;11.63;;
9821;SDS011;4950;46.042;14.472;2022-10-31T01:36:28;14.63;;;9.00;;
9821;SDS011;4950;46.042;14.472;2022-10-31T01:38:57;16.73;;;8.87;;
9821;SDS011;4950;46.042;14.472;2022-10-31T01:41:26;17.33;;;9.17;;
9821;SDS011;4950;46.042;14.472;2022-10-31T01:43:55;13.83;;;8.23;;
9821;SDS011;4950;46.042;14.472;2022-10-31T01:46:24;14.13;;;9.57;;
9821;SDS011;4950;46.042;14.472;2022-10-31T01:48:53;21.80;;;9.57;;
9821;SDS011;4950;46.042;14.472;2022-10-31T01:51:23;11.33;;;8.30;;
9821;SDS011;4950;46.042;14.472;2022-10-31T01:53:55;14.17;;;10.10;;
9821;SDS011;4950;46.042;14.472;2022-10-31T01:56:24;14.47;;;10.07;;
9821;SDS011;4950;46.042;14.472;2022-10-31T01:58:51;17.43;;;10.93;;
9821;SDS011;4950;46.042;14.472;2022-10-31T02:01:22;13.60;;;10.57;;
9821;SDS011;4950;46.042;14.472;2022-10-31T02:03:49;17.57;;;10.27;;
9821;SDS011;4950;46.042;14.472;2022-10-31T02:06:19;13.20;;;9.80;;
9821;SDS011;4950;46.042;14.472;2022-10-31T02:08:54;11.77;;;9.57;;
9821;SDS011;4950;46.042;14.472;2022-10-31T02:11:23;10.80;;;8.03;;
9821;SDS011;4950;46.042;14.472;2022-10-31T02:13:50;11.73;;;8.97;;
9821;SDS011;4950;46.042;14.472;2022-10-31T02:16:17;11.73;;;8.17;;
9821;SDS011;4950;46.042;14.472;2022-10-31T02:18:45;11.60;;;7.90;;
9821;SDS011;4950;46.042;14.472;2022-10-31T02:21:14;9.20;;;7.90;;
9821;SDS011;4950;46.042;14.472;2022-10-31T02:27:11;12.23;;;8.27;;
9821;SDS011;4950;46.042;14.472;2022-10-31T02:30:03;10.73;;;9.30;;
9821;SDS011;4950;46.042;14.472;2022-10-31T02:32:40;11.10;;;9.57;;
9821;SDS011;4950;46.042;14.472;2022-10-31T02:35:13;12.37;;;9.17;;
9821;SDS011;4950;46.042;14.472;2022-10-31T02:37:50;10.73;;;8.83;;
9821;SDS011;4950;46.042;14.472;2022-10-31T02:40:25;10.53;;;9.30;;
9821;SDS011;4950;46.042;14.472;2022-10-31T02:42:57;14.63;;;8.97;;
9821;SDS011;4950;46.042;14.472;2022-10-31T02:45:29;12.20;;;8.80;;
9821;SDS011;4950;46.042;14.472;2022-10-31T02:48:03;13.90;;;8.77;;
9821;SDS011;4950;46.042;14.472;2022-10-31T02:50:36;11.03;;;7.77;;
9821;SDS011;4950;46.042;14.472;2022-10-31T02:53:07;11.60;;;6.93;;
9821;SDS011;4950;46.042;14.472;2022-10-31T02:55:46;12.30;;;7.60;;
9821;SDS011;4950;46.042;14.472;2022-10-31T02:58:17;13.27;;;8.07;;
9821;SDS011;4950;46.042;14.472;2022-10-31T03:00:51;14.63;;;8.57;;
9821;SDS011;4950;46.042;14.472;2022-10-31T03:03:32;13.50;;;8.57;;
9821;SDS011;4950;46.042;14.472;2022-10-31T03:06:03;12.77;;;7.60;;
9821;SDS011;4950;46.042;14.472;2022-10-31T03:08:35;15.80;;;8.20;;
9821;SDS011;4950;46.042;14.472;2022-10-31T03:11:09;11.63;;;7.33;;
9821;SDS011;4950;46.042;14.472;2022-10-31T03:13:38;10.87;;;7.97;;
9821;SDS011;4950;46.042;14.472;2022-10-31T03:16:11;12.60;;;7.57;;
9821;SDS011;4950;46.042;14.472;2022-10-31T03:18:43;16.17;;;7.97;;
9821;SDS011;4950;46.042;14.472;2022-10-31T03:21:16;15.07;;;8.13;;
9821;SDS011;4950;46.042;14.472;2022-10-31T03:23:47;12.47;;;7.23;;
9821;SDS011;4950;46.042;14.472;2022-10-31T03:26:17;10.87;;;7.17;;
9821;SDS011;4950;46.042;14.472;2022-10-31T03:28:46;10.23;;;7.53;;
9821;SDS011;4950;46.042;14.472;2022-10-31T03:31:18;14.03;;;8.70;;
9821;SDS011;4950;46.042;14.472;2022-10-31T03:33:50;13.03;;;7.87;;
9821;SDS011;4950;46.042;14.472;2022-10-31T03:36:18;11.33;;;8.33;;
9821;SDS011;4950;46.042;14.472;2022-10-31T03:38:46;10.63;;;7.23;;
9821;SDS011;4950;46.042;14.472;2022-10-31T03:41:14;8.73;;;7.73;;
9821;SDS011;4950;46.042;14.472;2022-10-31T03:43:46;13.03;;;7.27;;
9821;SDS011;4950;46.042;14.472;2022-10-31T03:46:18;9.53;;;7.67;;
9821;SDS011;4950;46.042;14.472;2022-10-31T03:48:45;12.23;;;7.20;;
9821;SDS011;4950;46.042;14.472;2022-10-31T03:51:14;6.70;;;6.10;;
9821;SDS011;4950;46.042;14.472;2022-10-31T03:53:46;8.53;;;7.00;;
9821;SDS011;4950;46.042;14.472;2022-10-31T03:56:21;7.97;;;7.10;;
9821;SDS011;4950;46.042;14.472;2022-10-31T03:58:53;8.77;;;6.73;;
9821;SDS011;4950;46.042;14.472;2022-10-31T04:01:24;9.20;;;7.50;;
9821;SDS011;4950;46.042;14.472;2022-10-31T04:03:52;8.90;;;6.33;;
9821;SDS011;4950;46.042;14.472;2022-10-31T04:06:21;7.77;;;6.97;;
9821;SDS011;4950;46.042;14.472;2022-10-31T04:08:51;8.93;;;7.33;;
9821;SDS011;4950;46.042;14.472;2022-10-31T04:11:21;7.20;;;6.50;;
9821;SDS011;4950;46.042;14.472;2022-10-31T04:13:51;9.00;;;6.73;;
9821;SDS011;4950;46.042;14.472;2022-10-31T04:16:19;7.87;;;7.07;;
9821;SDS011;4950;46.042;14.472;2022-10-31T04:18:47;7.57;;;6.87;;
9821;SDS011;4950;46.042;14.472;2022-10-31T04:21:14;6.97;;;6.37;;
9821;SDS011;4950;46.042;14.472;2022-10-31T04:23:43;7.43;;;6.37;;
9821;SDS011;4950;46.042;14.472;2022-10-31T04:26:09;8.17;;;7.23;;
9821;SDS011;4950;46.042;14.472;2022-10-31T04:28:37;7.80;;;7.00;;
9821;SDS011;4950;46.042;14.472;2022-10-31T04:31:04;9.33;;;6.27;;
9821;SDS011;4950;46.042;14.472;2022-10-31T04:33:31;7.67;;;6.67;;
9821;SDS011;4950;46.042;14.472;2022-10-31T04:35:58;7.33;;;6.63;;
9821;SDS011;4950;46.042;14.472;2022-10-31T04:38:24;7.33;;;6.60;;
9821;SDS011;4950;46.042;14.472;2022-10-31T04:40:52;6.97;;;6.30;;
9821;SDS011;4950;46.042;14.472;2022-10-31T04:43:19;6.97;;;6.27;;
9821;SDS011;4950;46.042;14.472;2022-10-31T04:45:45;6.77;;;6.17;;
9821;SDS011;4950;46.042;14.472;2022-10-31T04:48:12;8.33;;;6.87;;
9821;SDS011;4950;46.042;14.472;2022-10-31T04:50:39;6.70;;;6.00;;
9821;SDS011;4950;46.042;14.472;2022-10-31T04:53:05;7.10;;;6.50;;
9821;SDS011;4950;46.042;14.472;2022-10-31T04:55:32;8.07;;;6.50;;
9821;SDS011;4950;46.042;14.472;2022-10-31T04:58:00;6.70;;;5.90;;
9821;SDS011;4950;46.042;14.472;2022-10-31T05:00:26;7.43;;;6.33;;
9821;SDS011;4950;46.042;14.472;2022-10-31T05:02:54;7.70;;;6.60;;
9821;SDS011;4950;46.042;14.472;2022-10-31T05:05:22;12.23;;;7.27;;
9821;SDS011;4950;46.042;14.472;2022-10-31T05:07:50;8.73;;;6.70;;
9821;SDS011;4950;46.042;14.472;2022-10-31T05:10:18;10.37;;;6.73;;
9821;SDS011;4950;46.042;14.472;2022-10-31T05:12:45;9.67;;;7.90;;
9821;SDS011;4950;46.042;14.472;2022-10-31T05:15:15;11.17;;;7.07;;
9821;SDS011;4950;46.042;14.472;2022-10-31T05:17:42;8.23;;;6.80;;
9821;SDS011;4950;46.042;14.472;2022-10-31T05:20:09;7.53;;;6.57;;
9821;SDS011;4950;46.042;14.472;2022-10-31T05:22:36;7.67;;;6.60;;
9821;SDS011;4950;46.042;14.472;2022-10-31T05:25:03;11.20;;;7.23;;
9821;SDS011;4950;46.042;14.472;2022-10-31T05:27:30;8.87;;;6.60;;
9821;SDS011;4950;46.042;14.472;2022-10-31T05:29:57;10.33;;;6.90;;
9821;SDS011;4950;46.042;14.472;2022-10-31T05:32:25;9.03;;;6.93;;
9821;SDS011;4950;46.042;14.472;2022-10-31T05:34:51;9.77;;;7.57;;
9821;SDS011;4950;46.042;14.472;2022-10-31T05:37:18;9.33;;;7.60;;
9821;SDS011;4950;46.042;14.472;2022-10-31T05:39:44;10.83;;;8.70;;
9821;SDS011;4950;46.042;14.472;2022-10-31T05:42:11;9.80;;;8.60;;
9821;SDS011;4950;46.042;14.472;2022-10-31T05:44:37;20.17;;;9.30;;
9821;SDS011;4950;46.042;14.472;2022-10-31T05:47:04;13.03;;;9.00;;
9821;SDS011;4950;46.042;14.472;2022-10-31T05:49:33;11.73;;;8.30;;
9821;SDS011;4950;46.042;14.472;2022-10-31T05:51:59;12.83;;;10.00;;
9821;SDS011;4950;46.042;14.472;2022-10-31T05:54:26;15.03;;;11.43;;
9821;SDS011;4950;46.042;14.472;2022-10-31T05:56:53;25.17;;;11.37;;
9821;SDS011;4950;46.042;14.472;2022-10-31T05:59:19;11.20;;;10.00;;
9821;SDS011;4950;46.042;14.472;2022-10-31T06:01:46;12.90;;;10.57;;
9821;SDS011;4950;46.042;14.472;2022-10-31T06:04:12;19.23;;;12.27;;
9821;SDS011;4950;46.042;14.472;2022-10-31T06:06:40;17.43;;;13.50;;
9821;SDS011;4950;46.042;14.472;2022-10-31T06:09:07;23.80;;;13.43;;
9821;SDS011;4950;46.042;14.472;2022-10-31T06:11:34;32.27;;;16.00;;
9821;SDS011;4950;46.042;14.472;2022-10-31T06:14:00;23.33;;;17.13;;
9821;SDS011;4950;46.042;14.472;2022-10-31T06:16:27;39.80;;;21.37;;
9821;SDS011;4950;46.042;14.472;2022-10-31T06:18:54;55.37;;;24.10;;
9821;SDS011;4950;46.042;14.472;2022-10-31T06:21:20;53.80;;;20.90;;
9821;SDS011;4950;46.042;14.472;2022-10-31T06:23:48;55.70;;;23.57;;
9821;SDS011;4950;46.042;14.472;2022-10-31T06:26:15;53.90;;;27.77;;
9821;SDS011;4950;46.042;14.472;2022-10-31T06:28:42;52.57;;;28.50;;
9821;SDS011;4950;46.042;14.472;2022-10-31T06:31:08;45.90;;;28.07;;
9821;SDS011;4950;46.042;14.472;2022-10-31T06:33:35;44.03;;;28.20;;
9821;SDS011;4950;46.042;14.472;2022-10-31T06:36:02;76.00;;;44.47;;
9821;SDS011;4950;46.042;14.472;2022-10-31T06:38:29;89.53;;;49.90;;
9821;SDS011;4950;46.042;14.472;2022-10-31T06:40:57;94.23;;;50.57;;
9821;SDS011;4950;46.042;14.472;2022-10-31T06:43:24;69.87;;;40.23;;
9821;SDS011;4950;46.042;14.472;2022-10-31T06:45:50;67.37;;;41.73;;
9821;SDS011;4950;46.042;14.472;2022-10-31T06:48:17;57.83;;;37.13;;
9821;SDS011;4950;46.042;14.472;2022-10-31T06:50:44;71.13;;;40.23;;
9821;SDS011;4950;46.042;14.472;2022-10-31T06:53:11;63.43;;;35.57;;
9821;SDS011;4950;46.042;14.472;2022-10-31T06:55:38;55.53;;;34.77;;
9821;SDS011;4950;46.042;14.472;2022-10-31T06:58:06;57.97;;;38.00;;
9821;SDS011;4950;46.042;14.472;2022-10-31T07:00:32;58.90;;;37.93;;
9821;SDS011;4950;46.042;14.472;2022-10-31T07:03:00;58.37;;;38.40;;
9821;SDS011;4950;46.042;14.472;2022-10-31T07:05:28;53.10;;;36.07;;
9821;SDS011;4950;46.042;14.472;2022-10-31T07:07:55;49.83;;;33.97;;
9821;SDS011;4950;46.042;14.472;2022-10-31T07:10:23;45.37;;;31.23;;
9821;SDS011;4950;46.042;14.472;2022-10-31T07:12:53;37.53;;;28.33;;
9821;SDS011;4950;46.042;14.472;2022-10-31T07:15:22;33.23;;;24.73;;
9821;SDS011;4950;46.042;14.472;2022-10-31T07:17:49;32.73;;;24.03;;
9821;SDS011;4950;46.042;14.472;2022-10-31T07:20:16;35.50;;;23.93;;
9821;SDS011;4950;46.042;14.472;2022-10-31T07:22:43;27.47;;;20.73;;
9821;SDS011;4950;46.042;14.472;2022-10-31T07:25:10;25.23;;;19.73;;
9821;SDS011;4950;46.042;14.472;2022-10-31T07:27:37;26.27;;;18.90;;
9821;SDS011;4950;46.042;14.472;2022-10-31T07:30:05;21.73;;;17.57;;
9821;SDS011;4950;46.042;14.472;2022-10-31T07:32:40;21.10;;;15.90;;
9821;SDS011;4950;46.042;14.472;2022-10-31T07:35:07;22.20;;;16.93;;
9821;SDS011;4950;46.042;14.472;2022-10-31T07:37:36;15.90;;;14.20;;
9821;SDS011;4950;46.042;14.472;2022-10-31T07:40:03;15.37;;;13.13;;
9821;SDS011;4950;46.042;14.472;2022-10-31T07:42:34;13.30;;;11.93;;
9821;SDS011;4950;46.042;14.472;2022-10-31T07:45:00;12.13;;;10.90;;
9821;SDS011;4950;46.042;14.472;2022-10-31T07:47:27;12.37;;;10.97;;
9821;SDS011;4950;46.042;14.472;2022-10-31T07:49:55;10.80;;;9.70;;
9821;SDS011;4950;46.042;14.472;2022-10-31T07:52:22;10.50;;;9.50;;
9821;SDS011;4950;46.042;14.472;2022-10-31T07:54:50;9.60;;;8.70;;
9821;SDS011;4950;46.042;14.472;2022-10-31T07:57:17;8.63;;;7.77;;
9821;SDS011;4950;46.042;14.472;2022-10-31T07:59:43;8.17;;;7.47;;
9821;SDS011;4950;46.042;14.472;2022-10-31T08:02:10;7.40;;;6.70;;
9821;SDS011;4950;46.042;14.472;2022-10-31T08:04:36;7.83;;;7.17;;
9821;SDS011;4950;46.042;14.472;2022-10-31T08:07:04;6.83;;;6.23;;
9821;SDS011;4950;46.042;14.472;2022-10-31T08:09:31;7.23;;;6.63;;
9821;SDS011;4950;46.042;14.472;2022-10-31T08:11:57;7.30;;;6.70;;
9821;SDS011;4950;46.042;14.472;2022-10-31T08:14:24;7.30;;;6.63;;
9821;SDS011;4950;46.042;14.472;2022-10-31T08:16:51;8.20;;;7.50;;
9821;SDS011;4950;46.042;14.472;2022-10-31T08:19:18;7.83;;;7.13;;
9821;SDS011;4950;46.042;14.472;2022-10-31T08:21:45;7.33;;;6.70;;
9821;SDS011;4950;46.042;14.472;2022-10-31T08:24:13;7.40;;;6.70;;
9821;SDS011;4950;46.042;14.472;2022-10-31T08:26:39;7.63;;;7.00;;
9821;SDS011;4950;46.042;14.472;2022-10-31T08:29:06;7.67;;;7.00;;
9821;SDS011;4950;46.042;14.472;2022-10-31T08:31:33;7.87;;;7.17;;
9821;SDS011;4950;46.042;14.472;2022-10-31T08:33:59;8.83;;;7.93;;
9821;SDS011;4950;46.042;14.472;2022-10-31T08:36:26;9.83;;;8.77;;
9821;SDS011;4950;46.042;14.472;2022-10-31T08:38:54;8.40;;;7.60;;
9821;SDS011;4950;46.042;14.472;2022-10-31T08:41:22;8.73;;;7.93;;
9821;SDS011;4950;46.042;14.472;2022-10-31T08:43:48;8.33;;;7.53;;
9821;SDS011;4950;46.042;14.472;2022-10-31T08:46:15;8.63;;;6.80;;
9821;SDS011;4950;46.042;14.472;2022-10-31T08:48:41;9.07;;;7.07;;
9821;SDS011;4950;46.042;14.472;2022-10-31T08:51:09;8.30;;;6.90;;
9821;SDS011;4950;46.042;14.472;2022-10-31T08:53:36;7.77;;;7.03;;
9821;SDS011;4950;46.042;14.472;2022-10-31T08:56:03;6.87;;;6.17;;
9821;SDS011;4950;46.042;14.472;2022-10-31T08:58:31;6.10;;;5.50;;
9821;SDS011;4950;46.042;14.472;2022-10-31T09:00:58;7.63;;;5.33;;
9821;SDS011;4950;46.042;14.472;2022-10-31T09:03:26;7.77;;;5.40;;
9821;SDS011;4950;46.042;14.472;2022-10-31T09:05:55;7.17;;;5.30;;
9821;SDS011;4950;46.042;14.472;2022-10-31T09:08:23;5.97;;;5.27;;
9821;SDS011;4950;46.042;14.472;2022-10-31T09:10:50;6.33;;;5.60;;
9821;SDS011;4950;46.042;14.472;2022-10-31T09:13:18;7.47;;;5.50;;
9821;SDS011;4950;46.042;14.472;2022-10-31T09:15:48;6.43;;;5.53;;
9821;SDS011;4950;46.042;14.472;2022-10-31T09:18:16;8.37;;;5.87;;
9821;SDS011;4950;46.042;14.472;2022-10-31T09:20:44;15.43;;;12.40;;
9821;SDS011;4950;46.042;14.472;2022-10-31T09:23:13;18.93;;;13.60;;
9821;SDS011;4950;46.042;14.472;2022-10-31T09:25:40;21.80;;;16.95;;
9821;SDS011;4950;46.042;14.472;2022-10-31T09:28:08;61.65;;;46.80;;
9821;SDS011;4950;46.042;14.472;2022-10-31T09:30:37;47.13;;;36.00;;
9821;SDS011;4950;46.042;14.472;2022-10-31T09:33:06;87.75;;;67.95;;
9821;SDS011;4950;46.042;14.472;2022-10-31T09:35:35;100.78;;;77.60;;
9821;SDS011;4950;46.042;14.472;2022-10-31T09:38:03;127.43;;;103.03;;
9821;SDS011;4950;46.042;14.472;2022-10-31T09:40:31;171.27;;;135.57;;
9821;SDS011;4950;46.042;14.472;2022-10-31T09:43:02;261.27;;;216.65;;
9821;SDS011;4950;46.042;14.472;2022-10-31T09:45:37;334.88;;;286.20;;
9821;SDS011;4950;46.042;14.472;2022-10-31T09:51:04;251.77;;;201.75;;
9821;SDS011;4950;46.042;14.472;2022-10-31T09:53:35;259.15;;;218.63;;
9821;SDS011;4950;46.042;14.472;2022-10-31T09:56:06;268.00;;;229.55;;
9821;SDS011;4950;46.042;14.472;2022-10-31T09:58:38;251.70;;;206.05;;
9821;SDS011;4950;46.042;14.472;2022-10-31T10:01:09;169.70;;;132.07;;
9821;SDS011;4950;46.042;14.472;2022-10-31T10:03:51;125.15;;;98.47;;
9821;SDS011;4950;46.042;14.472;2022-10-31T10:06:22;152.40;;;123.50;;
9821;SDS011;4950;46.042;14.472;2022-10-31T10:08:50;121.15;;;93.20;;
9821;SDS011;4950;46.042;14.472;2022-10-31T10:11:28;109.32;;;87.55;;
9821;SDS011;4950;46.042;14.472;2022-10-31T10:14:10;98.32;;;79.68;;
9821;SDS011;4950;46.042;14.472;2022-10-31T10:16:57;81.88;;;63.50;;
9821;SDS011;4950;46.042;14.472;2022-10-31T10:19:41;96.45;;;72.97;;
9821;SDS011;4950;46.042;14.472;2022-10-31T10:22:20;82.15;;;64.40;;
9821;SDS011;4950;46.042;14.472;2022-10-31T10:24:59;73.88;;;58.35;;
9821;SDS011;4950;46.042;14.472;2022-10-31T10:27:41;77.75;;;58.72;;
9821;SDS011;4950;46.042;14.472;2022-10-31T10:30:16;73.05;;;60.15;;
9821;SDS011;4950;46.042;14.472;2022-10-31T10:32:46;78.90;;;61.78;;
9821;SDS011;4950;46.042;14.472;2022-10-31T10:35:19;87.80;;;69.07;;
9821;SDS011;4950;46.042;14.472;2022-10-31T10:37:51;68.53;;;53.10;;
9821;SDS011;4950;46.042;14.472;2022-10-31T10:40:23;69.00;;;51.13;;
9821;SDS011;4950;46.042;14.472;2022-10-31T10:42:53;62.35;;;48.78;;
9821;SDS011;4950;46.042;14.472;2022-10-31T10:45:43;54.20;;;43.30;;
9821;SDS011;4950;46.042;14.472;2022-10-31T10:48:35;56.50;;;44.47;;
9821;SDS011;4950;46.042;14.472;2022-10-31T10:51:22;51.50;;;39.65;;
9821;SDS011;4950;46.042;14.472;2022-10-31T10:53:59;56.65;;;42.15;;
9821;SDS011;4950;46.042;14.472;2022-10-31T10:56:41;51.47;;;41.05;;
9821;SDS011;4950;46.042;14.472;2022-10-31T10:59:19;50.03;;;40.33;;
9821;SDS011;4950;46.042;14.472;2022-10-31T11:01:48;53.75;;;41.28;;
9821;SDS011;4950;46.042;14.472;2022-10-31T11:04:27;56.63;;;44.38;;
9821;SDS011;4950;46.042;14.472;2022-10-31T11:06:58;59.15;;;44.60;;
9821;SDS011;4950;46.042;14.472;2022-10-31T11:09:25;58.97;;;44.60;;
9821;SDS011;4950;46.042;14.472;2022-10-31T11:11:52;61.67;;;50.40;;
9821;SDS011;4950;46.042;14.472;2022-10-31T11:14:20;67.47;;;54.83;;
9821;SDS011;4950;46.042;14.472;2022-10-31T11:16:49;68.90;;;57.03;;
9821;SDS011;4950;46.042;14.472;2022-10-31T11:19:19;64.70;;;54.35;;
9821;SDS011;4950;46.042;14.472;2022-10-31T11:21:47;62.20;;;48.40;;
9821;SDS011;4950;46.042;14.472;2022-10-31T11:24:16;57.65;;;46.33;;
9821;SDS011;4950;46.042;14.472;2022-10-31T11:26:45;53.83;;;43.03;;
9821;SDS011;4950;46.042;14.472;2022-10-31T11:29:14;43.22;;;35.47;;
9821;SDS011;4950;46.042;14.472;2022-10-31T11:31:43;37.83;;;30.63;;
9821;SDS011;4950;46.042;14.472;2022-10-31T11:34:13;32.13;;;25.13;;
9821;SDS011;4950;46.042;14.472;2022-10-31T11:36:44;36.03;;;25.88;;
9821;SDS011;4950;46.042;14.472;2022-10-31T11:39:17;31.40;;;23.35;;
9821;SDS011;4950;46.042;14.472;2022-10-31T11:41:46;22.13;;;17.00;;
9821;SDS011;4950;46.042;14.472;2022-10-31T11:44:14;19.40;;;14.07;;
9821;SDS011;4950;46.042;14.472;2022-10-31T11:46:44;16.65;;;11.65;;
9821;SDS011;4950;46.042;14.472;2022-10-31T11:49:14;11.93;;;9.00;;
9821;SDS011;4950;46.042;14.472;2022-10-31T11:51:46;12.32;;;7.82;;
9821;SDS011;4950;46.042;14.472;2022-10-31T11:54:19;14.50;;;8.43;;
9821;SDS011;4950;46.042;14.472;2022-10-31T11:56:49;14.18;;;8.15;;
9821;SDS011;4950;46.042;14.472;2022-10-31T11:59:23;9.63;;;6.63;;
9821;SDS011;4950;46.042;14.472;2022-10-31T12:01:53;13.05;;;6.45;;
9821;SDS011;4950;46.042;14.472;2022-10-31T12:04:24;13.13;;;6.45;;
9821;SDS011;4950;46.042;14.472;2022-10-31T12:07:00;13.10;;;6.45;;
9821;SDS011;4950;46.042;14.472;2022-10-31T12:09:28;9.43;;;6.50;;
9821;SDS011;4950;46.042;14.472;2022-10-31T12:12:03;11.32;;;6.47;;
9821;SDS011;4950;46.042;14.472;2022-10-31T12:14:44;10.23;;;6.30;;
9821;SDS011;4950;46.042;14.472;2022-10-31T12:17:21;10.77;;;5.65;;
9821;SDS011;4950;46.042;14.472;2022-10-31T12:19:57;11.55;;;5.90;;
9821;SDS011;4950;46.042;14.472;2022-10-31T12:22:33;9.95;;;5.35;;
9821;SDS011;4950;46.042;14.472;2022-10-31T12:25:17;14.57;;;5.70;;
9821;SDS011;4950;46.042;14.472;2022-10-31T12:27:59;15.48;;;5.97;;
9821;SDS011;4950;46.042;14.472;2022-10-31T12:30:40;9.90;;;5.57;;
9821;SDS011;4950;46.042;14.472;2022-10-31T12:33:20;11.50;;;5.43;;
9821;SDS011;4950;46.042;14.472;2022-10-31T12:36:00;12.15;;;6.03;;
9821;SDS011;4950;46.042;14.472;2022-10-31T12:38:42;11.48;;;5.88;;
9821;SDS011;4950;46.042;14.472;2022-10-31T12:41:27;7.53;;;5.63;;
9821;SDS011;4950;46.042;14.472;2022-10-31T12:44:05;10.30;;;6.03;;
9821;SDS011;4950;46.042;14.472;2022-10-31T12:46:37;8.55;;;5.07;;
9821;SDS011;4950;46.042;14.472;2022-10-31T12:49:27;10.60;;;6.40;;
9821;SDS011;4950;46.042;14.472;2022-10-31T12:52:09;12.82;;;6.80;;
9821;SDS011;4950;46.042;14.472;2022-10-31T12:54:55;10.15;;;5.82;;
9821;SDS011;4950;46.042;14.472;2022-10-31T12:57:33;9.50;;;6.15;;
9821;SDS011;4950;46.042;14.472;2022-10-31T13:00:05;12.05;;;6.43;;
9821;SDS011;4950;46.042;14.472;2022-10-31T13:02:40;12.30;;;6.00;;
9821;SDS011;4950;46.042;14.472;2022-10-31T13:05:13;10.75;;;6.32;;
9821;SDS011;4950;46.042;14.472;2022-10-31T13:07:47;11.30;;;6.25;;
9821;SDS011;4950;46.042;14.472;2022-10-31T13:10:19;10.30;;;6.40;;
9821;SDS011;4950;46.042;14.472;2022-10-31T13:12:53;15.65;;;6.53;;
9821;SDS011;4950;46.042;14.472;2022-10-31T13:15:24;8.93;;;5.95;;
9821;SDS011;4950;46.042;14.472;2022-10-31T13:17:54;9.68;;;6.47;;
9821;SDS011;4950;46.042;14.472;2022-10-31T13:20:24;10.25;;;6.65;;
9821;SDS011;4950;46.042;14.472;2022-10-31T13:22:54;11.38;;;6.90;;
9821;SDS011;4950;46.042;14.472;2022-10-31T13:25:25;12.82;;;6.32;;
9821;SDS011;4950;46.042;14.472;2022-10-31T13:27:59;8.70;;;5.80;;
9821;SDS011;4950;46.042;14.472;2022-10-31T13:30:29;13.80;;;6.68;;
9821;SDS011;4950;46.042;14.472;2022-10-31T13:33:00;12.35;;;6.57;;
9821;SDS011;4950;46.042;14.472;2022-10-31T13:35:32;9.63;;;7.32;;
9821;SDS011;4950;46.042;14.472;2022-10-31T13:38:10;9.73;;;6.40;;
9821;SDS011;4950;46.042;14.472;2022-10-31T13:40:45;11.68;;;7.63;;
9821;SDS011;4950;46.042;14.472;2022-10-31T13:43:23;15.63;;;7.10;;
9821;SDS011;4950;46.042;14.472;2022-10-31T13:46:00;11.05;;;8.35;;
9821;SDS011;4950;46.042;14.472;2022-10-31T13:48:33;12.15;;;7.95;;
9821;SDS011;4950;46.042;14.472;2022-10-31T13:51:07;18.08;;;8.52;;
9821;SDS011;4950;46.042;14.472;2022-10-31T13:53:40;9.68;;;8.43;;
9821;SDS011;4950;46.042;14.472;2022-10-31T13:56:17;11.88;;;9.20;;
9821;SDS011;4950;46.042;14.472;2022-10-31T13:59:02;14.70;;;8.93;;
9821;SDS011;4950;46.042;14.472;2022-10-31T14:01:44;16.65;;;11.52;;
9821;SDS011;4950;46.042;14.472;2022-10-31T14:04:14;14.57;;;11.73;;
9821;SDS011;4950;46.042;14.472;2022-10-31T14:06:51;18.08;;;10.25;;
9821;SDS011;4950;46.042;14.472;2022-10-31T14:09:26;20.67;;;14.43;;
9821;SDS011;4950;46.042;14.472;2022-10-31T14:11:56;25.20;;;16.85;;
9821;SDS011;4950;46.042;14.472;2022-10-31T14:14:29;31.42;;;19.88;;
9821;SDS011;4950;46.042;14.472;2022-10-31T14:17:01;28.80;;;21.15;;
9821;SDS011;4950;46.042;14.472;2022-10-31T14:19:28;27.00;;;20.55;;
9821;SDS011;4950;46.042;14.472;2022-10-31T14:21:55;30.23;;;19.08;;
9821;SDS011;4950;46.042;14.472;2022-10-31T14:24:32;33.35;;;19.02;;
9821;SDS011;4950;46.042;14.472;2022-10-31T14:27:01;27.52;;;21.20;;
9821;SDS011;4950;46.042;14.472;2022-10-31T14:29:31;47.83;;;28.30;;
9821;SDS011;4950;46.042;14.472;2022-10-31T14:32:03;55.95;;;30.92;;
9821;SDS011;4950;46.042;14.472;2022-10-31T14:34:37;58.40;;;44.63;;
9821;SDS011;4950;46.042;14.472;2022-10-31T14:40:29;41.53;;;33.88;;
9821;SDS011;4950;46.042;14.472;2022-10-31T14:46:21;109.47;;;72.57;;
9821;SDS011;4950;46.042;14.472;2022-10-31T14:49:05;118.90;;;89.45;;
9821;SDS011;4950;46.042;14.472;2022-10-31T14:51:43;70.78;;;56.60;;
9821;SDS011;4950;46.042;14.472;2022-10-31T14:54:13;68.78;;;54.25;;
9821;SDS011;4950;46.042;14.472;2022-10-31T14:56:46;97.13;;;75.18;;
9821;SDS011;4950;46.042;14.472;2022-10-31T14:59:16;84.10;;;65.40;;
9821;SDS011;4950;46.042;14.472;2022-10-31T15:01:50;69.93;;;49.55;;
9821;SDS011;4950;46.042;14.472;2022-10-31T15:04:22;52.50;;;38.67;;
9821;SDS011;4950;46.042;14.472;2022-10-31T15:06:52;44.15;;;33.30;;
9821;SDS011;4950;46.042;14.472;2022-10-31T15:09:24;41.72;;;30.65;;
9821;SDS011;4950;46.042;14.472;2022-10-31T15:11:52;37.63;;;27.45;;
9821;SDS011;4950;46.042;14.472;2022-10-31T15:14:22;29.65;;;23.00;;
9821;SDS011;4950;46.042;14.472;2022-10-31T15:16:52;25.92;;;18.10;;